createdAt,value
2023-04-28T00:00:57.768Z,17.3
2023-04-28T00:06:51.880Z,17.3
2023-04-28T00:12:43.021Z,17.3
2023-04-28T00:18:35.254Z,17.2
2023-04-28T00:24:27.090Z,17.2
2023-04-28T00:30:22.605Z,17.1
2023-04-28T00:36:14.228Z,17.1
2023-04-28T00:53:17.661Z,16.9
2023-04-28T00:59:09.088Z,16.9
2023-04-28T01:04:32.112Z,16.9
2023-04-28T01:10:23.809Z,16.8
2023-04-28T01:16:16.015Z,16.8
2023-04-28T01:22:06.772Z,16.8
2023-04-28T01:27:58.152Z,16.8
2023-04-28T01:33:50.115Z,16.7
2023-04-28T01:39:41.331Z,16.7
2023-04-28T01:45:32.927Z,16.6
2023-04-28T01:51:25.032Z,16.6
2023-04-28T01:57:17.690Z,16.6
2023-04-28T02:03:09.859Z,16.6
2023-04-28T02:09:02.092Z,16.6
2023-04-28T02:14:37.892Z,16.5
2023-04-28T02:20:31.855Z,16.5
2023-04-28T02:26:08.768Z,16.4
2023-04-28T02:31:44.737Z,16.4
2023-04-28T02:37:36.048Z,16.4
2023-04-28T02:43:27.489Z,16.4
2023-04-28T02:49:03.704Z,16.4
2023-04-28T02:54:55.386Z,16.3
2023-04-28T03:00:47.574Z,16.3
2023-04-28T03:06:25.304Z,16.3
2023-04-28T03:12:01.381Z,16.3
2023-04-28T03:17:24.068Z,16.3
2023-04-28T03:23:14.570Z,16.2
2023-04-28T03:28:59.869Z,16.2
2023-04-28T03:34:36.275Z,16.2
2023-04-28T03:40:12.908Z,16.2
2023-04-28T03:46:06.205Z,16.2
2023-04-28T03:51:57.842Z,16.1
2023-04-28T03:57:48.492Z,16.1
2023-04-28T04:03:40.602Z,16.1
2023-04-28T04:09:20.064Z,16.1
2023-04-28T04:15:11.843Z,16.1
2023-04-28T04:21:04.811Z,16.1
2023-04-28T04:26:56.431Z,16.1
2023-04-28T04:32:47.770Z,16
2023-04-28T04:38:39.365Z,16
2023-04-28T04:44:48.032Z,16
2023-04-28T04:50:40.216Z,16
2023-04-28T04:56:34.061Z,16
2023-04-28T05:02:26.083Z,15.9
2023-04-28T05:08:34.283Z,15.9
2023-04-28T05:14:28.843Z,15.9
2023-04-28T05:20:21.154Z,15.9
2023-04-28T05:26:13.074Z,15.9
2023-04-28T05:32:04.731Z,15.9
2023-04-28T05:37:56.940Z,15.9
2023-04-28T05:43:48.904Z,15.8
2023-04-28T05:49:52.738Z,15.8
2023-04-28T05:55:45.098Z,15.8
2023-04-28T06:01:44.257Z,15.8
2023-04-28T06:07:09.120Z,15.8
2023-04-28T06:13:00.709Z,15.8
2023-04-28T06:18:22.068Z,15.8
2023-04-28T06:23:57.938Z,15.8
2023-04-28T06:29:20.118Z,15.8
2023-04-28T06:34:58.358Z,15.8
2023-04-28T06:40:03.933Z,15.8
2023-04-28T06:45:27.816Z,15.8
2023-04-28T06:50:48.683Z,15.7
2023-04-28T06:56:30.771Z,15.7
2023-04-28T07:02:24.223Z,15.7
2023-04-28T07:08:18.665Z,15.7
2023-04-28T07:14:12.541Z,15.7
2023-04-28T07:20:04.396Z,15.7
2023-04-28T07:25:56.121Z,15.7
2023-04-28T07:32:07.375Z,15.7
2023-04-28T07:37:59.889Z,15.7
2023-04-28T07:43:53.680Z,15.7
2023-04-28T07:49:30.765Z,15.7
2023-04-28T07:55:22.402Z,15.7
2023-04-28T08:01:14.863Z,15.7
2023-04-28T08:07:09.429Z,15.7
2023-04-28T08:13:00.319Z,15.7
2023-04-28T08:18:38.124Z,15.6
2023-04-28T08:24:32.487Z,15.6
2023-04-28T08:30:10.757Z,15.6
2023-04-28T08:35:47.288Z,15.7
2023-04-28T08:41:26.197Z,15.6
2023-04-28T08:46:48.506Z,15.6
2023-04-28T08:52:24.571Z,15.7
2023-04-28T08:58:01.984Z,15.6
2023-04-28T09:03:39.752Z,15.6
2023-04-28T09:09:03.081Z,15.6
2023-04-28T09:14:26.304Z,15.6
2023-04-28T09:20:03.314Z,15.6
2023-04-28T09:26:12.524Z,15.6
2023-04-28T09:31:48.940Z,15.6
2023-04-28T09:37:11.128Z,15.6
2023-04-28T09:42:48.897Z,15.6
2023-04-28T09:48:26.801Z,15.6
2023-04-28T09:54:17.721Z,15.7
2023-04-28T10:00:09.600Z,15.7
2023-04-28T10:07:59.528Z,15.7
2023-04-28T10:13:51.062Z,15.7
2023-04-28T10:19:27.261Z,15.7
2023-04-28T10:25:18.743Z,15.7
2023-04-28T10:31:22.524Z,15.7
2023-04-28T10:37:26.338Z,15.7
2023-04-28T10:43:17.028Z,15.7
2023-04-28T10:49:14.209Z,15.7
2023-04-28T10:55:28.884Z,15.7
2023-04-28T11:01:22.915Z,15.7
2023-04-28T11:07:16.585Z,15.7
2023-04-28T11:13:07.744Z,15.8
2023-04-28T11:18:46.398Z,15.8
2023-04-28T11:24:37.629Z,15.8
2023-04-28T11:30:28.896Z,15.8
2023-04-28T11:36:20.582Z,15.8
2023-04-28T11:42:13.425Z,15.8
2023-04-28T11:48:12.951Z,15.8
2023-04-28T11:54:05.049Z,15.8
2023-04-28T11:59:59.062Z,15.8
2023-04-28T12:05:55.227Z,15.8
2023-04-28T12:11:46.530Z,15.8
2023-04-28T12:17:55.523Z,15.8
2023-04-28T12:23:47.669Z,15.9
2023-04-28T12:29:23.185Z,15.9
2023-04-28T12:35:16.878Z,15.9
2023-04-28T12:41:09.047Z,15.9
2023-04-28T12:47:02.418Z,15.9
2023-04-28T12:52:54.228Z,15.9
2023-04-28T12:58:30.339Z,15.9
2023-04-28T13:04:23.772Z,15.9
2023-04-28T13:10:16.734Z,15.9
2023-04-28T13:16:18.976Z,16
2023-04-28T13:22:12.803Z,16
2023-04-28T13:27:49.760Z,16
2023-04-28T13:33:26.412Z,16
2023-04-28T13:39:18.750Z,16
2023-04-28T13:45:10.088Z,16
2023-04-28T13:51:01.386Z,16
2023-04-28T13:56:53.283Z,16.1
2023-04-28T14:02:45.264Z,16.1
2023-04-28T14:08:37.022Z,16.1
2023-04-28T14:14:28.687Z,16.1
2023-04-28T14:20:31.592Z,16.1
2023-04-28T14:26:22.766Z,16.1
2023-04-28T14:32:14.930Z,16.1
2023-04-28T14:38:07.009Z,16.1
2023-04-28T14:43:43.458Z,16.1
2023-04-28T14:49:35.792Z,16.1
2023-04-28T14:55:27.520Z,16.2
2023-04-28T15:01:21.419Z,16.2
2023-04-28T15:07:15.330Z,16.2
2023-04-28T15:12:54.750Z,16.2
2023-04-28T15:18:47.573Z,16.2
2023-04-28T15:24:39.875Z,16.2
2023-04-28T15:30:32.329Z,16.3
2023-04-28T15:36:25.551Z,16.3
2023-04-28T15:42:20.375Z,16.3
2023-04-28T15:48:12.741Z,16.3
2023-04-28T15:54:04.998Z,16.3
2023-04-28T15:59:57.022Z,16.3
2023-04-28T16:05:50.779Z,16.3
2023-04-28T16:11:42.942Z,16.3
2023-04-28T16:17:35.968Z,16.3
2023-04-28T16:23:13.964Z,16.3
2023-04-28T16:29:06.049Z,16.3
2023-04-28T16:34:58.694Z,16.3
2023-04-28T16:40:51.233Z,16.3
2023-04-28T16:46:43.932Z,16.4
2023-04-28T16:52:36.763Z,16.4
2023-04-28T16:58:29.764Z,16.4
2023-04-28T17:04:23.024Z,16.4
2023-04-28T17:09:44.511Z,16.4
2023-04-28T17:15:38.999Z,16.4
2023-04-28T17:21:31.751Z,16.4
2023-04-28T17:27:23.798Z,16.4
2023-04-28T17:33:18.977Z,16.4
2023-04-28T17:39:10.958Z,16.4
2023-04-28T17:45:02.511Z,16.4
2023-04-28T17:50:55.141Z,16.4
2023-04-28T17:56:48.610Z,16.4
2023-04-28T18:02:41.134Z,16.4
2023-04-28T18:08:37.239Z,16.4
2023-04-28T18:14:31.694Z,16.4
2023-04-28T18:20:26.715Z,16.4
2023-04-28T18:26:18.567Z,16.4
2023-04-28T18:32:12.844Z,16.4
2023-04-28T18:38:05.778Z,16.4
2023-04-28T18:43:58.092Z,16.4
2023-04-28T18:49:53.629Z,16.4
2023-04-28T18:55:44.863Z,16.4
2023-04-28T19:01:37.115Z,16.4
2023-04-28T19:07:15.283Z,16.4
2023-04-28T19:13:11.709Z,16.4
2023-04-28T19:19:03.534Z,16.4
2023-04-28T19:24:55.386Z,16.4
2023-04-28T19:30:47.783Z,16.4
2023-04-28T19:36:40.722Z,16.4
2023-04-28T19:42:32.958Z,16.4
2023-04-28T19:48:26.009Z,16.3
2023-04-28T19:54:18.373Z,16.3
2023-04-28T19:59:39.996Z,16.3
2023-04-28T20:05:37.473Z,16.3
2023-04-28T20:11:15.679Z,16.3
2023-04-28T20:17:07.147Z,16.3
2023-04-28T20:22:59.293Z,16.3
2023-04-28T20:28:50.710Z,21.8
2023-04-28T20:34:44.123Z,24.4
2023-04-28T20:40:35.692Z,26.1
2023-04-28T20:46:27.659Z,23.9
2023-04-28T20:52:21.353Z,23.4
2023-04-28T20:58:14.542Z,23.5
2023-04-28T21:04:08.068Z,23.4
2023-04-28T21:10:00.123Z,24.3
2023-04-28T21:15:50.983Z,26.3
2023-04-28T21:21:27.945Z,23.7
2023-04-28T21:27:19.676Z,23.7
2023-04-28T21:33:11.118Z,23.8
2023-04-28T21:39:02.970Z,23.6
2023-04-28T21:44:38.966Z,23.3
2023-04-28T21:50:00.040Z,25.2
2023-04-28T21:55:51.465Z,26.8
2023-04-28T22:01:43.426Z,23.8
2023-04-28T22:07:21.698Z,23.9
2023-04-28T22:13:13.538Z,23.9
2023-04-28T22:19:21.305Z,23.6
2023-04-28T22:25:12.875Z,23.3
2023-04-28T22:30:48.873Z,24.8
2023-04-28T22:36:24.956Z,26.7
2023-04-28T22:42:01.130Z,23.9
2023-04-28T22:47:52.307Z,24
2023-04-28T22:53:43.858Z,24
2023-04-28T22:59:22.743Z,23.8
2023-04-28T23:05:16.786Z,23.5
2023-04-28T23:10:53.021Z,24
2023-04-28T23:16:44.518Z,26.1
2023-04-28T23:22:38.836Z,24.3
2023-04-28T23:28:14.535Z,24.2
2023-04-28T23:33:50.872Z,24
2023-04-28T23:39:27.093Z,23.6
2023-04-28T23:45:03.575Z,23.2
2023-04-28T23:50:55.130Z,22.8
2023-04-28T23:56:45.912Z,23.6
